createdAt,value
2023-01-23T00:03:05.326Z,101009.13
2023-01-23T00:07:57.017Z,101011.41
2023-01-23T00:12:53.377Z,101008.22
2023-01-23T00:17:45.703Z,101006.38
2023-01-23T00:22:37.413Z,101006.38
2023-01-23T00:27:29.229Z,101024.16
2023-01-23T00:32:21.666Z,101027.34
2023-01-23T00:37:14.082Z,101028.00
2023-01-23T00:42:06.172Z,101034.47
2023-01-23T00:46:58.976Z,101043.75
2023-01-23T00:51:50.806Z,101036.84
2023-01-23T00:56:43.050Z,101034.53
2023-01-23T01:01:35.216Z,101030.44
2023-01-23T01:06:28.830Z,101023.66
2023-01-23T01:11:20.561Z,101022.47
2023-01-23T01:16:12.573Z,101014.97
2023-01-23T01:21:09.072Z,101023.38
2023-01-23T01:26:01.564Z,101024.47
2023-01-23T01:30:53.286Z,101022.19
2023-01-23T01:35:44.998Z,101016.53
2023-01-23T01:40:38.046Z,101024.94
2023-01-23T01:46:07.436Z,101024.59
2023-01-23T01:51:00.722Z,101030.59
2023-01-23T01:55:52.840Z,101037.53
2023-01-23T02:00:44.624Z,101039.63
2023-01-23T02:05:45.547Z,101032.69
2023-01-23T02:10:37.528Z,101025.75
2023-01-23T02:15:29.330Z,101043.75
2023-01-23T02:20:24.870Z,101051.19
2023-01-23T02:25:22.884Z,101049.63
2023-01-23T02:30:16.251Z,101046.94
2023-01-23T02:35:17.467Z,101048.78
2023-01-23T02:40:10.101Z,101051.19
2023-01-23T02:45:02.204Z,101053.88
2023-01-23T02:49:54.076Z,101046.81
2023-01-23T02:54:46.701Z,101048.53
2023-01-23T02:59:56.755Z,101052.03
2023-01-23T03:04:48.511Z,101052.75
2023-01-23T03:09:40.321Z,101053.38
2023-01-23T03:14:32.452Z,101047.16
2023-01-23T03:19:26.763Z,101022.50
2023-01-23T03:24:19.772Z,101029.81
2023-01-23T03:29:42.227Z,101029.06
2023-01-23T03:34:34.219Z,101037.72
2023-01-23T03:39:44.760Z,101030.06
2023-01-23T03:44:36.555Z,101030.19
2023-01-23T03:49:28.507Z,101037.38
2023-01-23T03:54:20.171Z,101037.50
2023-01-23T03:59:12.067Z,101030.44
2023-01-23T04:04:04.733Z,101029.84
2023-01-23T04:08:58.293Z,101037.16
2023-01-23T04:13:50.397Z,101038.97
2023-01-23T04:18:42.224Z,101034.34
2023-01-23T04:23:33.913Z,101027.44
2023-01-23T04:28:25.761Z,101027.69
2023-01-23T04:33:18.680Z,101025.97
2023-01-23T04:38:10.377Z,101035.22
2023-01-23T04:43:02.188Z,101051.00
2023-01-23T04:47:53.911Z,101041.53
2023-01-23T04:52:45.814Z,101050.50
2023-01-23T04:57:37.493Z,101052.72
2023-01-23T05:02:29.305Z,101071.41
2023-01-23T05:07:21.085Z,101063.75
2023-01-23T05:12:12.759Z,101080.03
2023-01-23T05:17:04.471Z,101088.88
2023-01-23T05:21:56.295Z,101081.25
2023-01-23T05:26:48.098Z,101087.22
2023-01-23T05:31:40.010Z,101081.00
2023-01-23T05:36:31.840Z,101086.47
2023-01-23T05:41:25.656Z,101090.84
2023-01-23T05:46:17.939Z,101079.06
2023-01-23T05:51:09.829Z,101093.88
2023-01-23T05:56:08.590Z,101086.47
2023-01-23T06:01:02.809Z,101082.31
2023-01-23T06:05:54.534Z,101091.81
2023-01-23T06:10:46.277Z,101090.72
2023-01-23T06:15:38.356Z,101103.97
2023-01-23T06:20:30.158Z,101111.97
2023-01-23T06:25:23.018Z,101115.50
2023-01-23T06:30:16.693Z,101113.53
2023-01-23T06:35:09.042Z,101114.03
2023-01-23T06:40:00.823Z,101110.25
2023-01-23T06:44:52.675Z,101116.81
2023-01-23T06:49:44.363Z,101121.66
2023-01-23T06:54:38.950Z,101119.84
2023-01-23T06:59:30.753Z,101133.44
2023-01-23T07:04:24.805Z,101129.09
2023-01-23T07:09:16.490Z,101133.44
2023-01-23T07:14:08.300Z,101133.69
2023-01-23T07:19:01.644Z,101135.06
2023-01-23T07:23:53.414Z,101132.63
2023-01-23T07:28:45.240Z,101129.19
2023-01-23T07:33:36.927Z,101127.53
2023-01-23T07:38:28.970Z,101138.09
2023-01-23T07:43:20.622Z,101140.13
2023-01-23T07:48:12.564Z,101146.34
2023-01-23T07:53:05.941Z,101137.59
2023-01-23T07:57:57.884Z,101147.69
2023-01-23T08:02:49.519Z,101142.69
2023-01-23T08:07:41.341Z,101146.34
2023-01-23T08:12:33.493Z,101155.34
2023-01-23T08:17:25.249Z,101157.16
2023-01-23T08:22:17.050Z,101152.78
2023-01-23T08:27:09.004Z,101155.47
2023-01-23T08:32:00.733Z,101168.81
2023-01-23T08:36:52.639Z,101172.34
2023-01-23T08:41:44.587Z,101181.19
2023-01-23T08:46:36.475Z,101189.72
2023-01-23T08:51:28.364Z,101193.09
2023-01-23T08:56:22.319Z,101192.63
2023-01-23T09:01:16.104Z,101199.56
2023-01-23T09:06:09.256Z,101205.50
2023-01-23T09:11:06.282Z,101210.00
2023-01-23T09:15:58.527Z,101223.75
2023-01-23T09:20:50.481Z,101222.53
2023-01-23T09:25:42.891Z,101234.91
2023-01-23T09:30:35.209Z,101221.19
2023-01-23T09:35:27.215Z,101211.34
2023-01-23T09:40:22.732Z,101208.06
2023-01-23T09:45:20.369Z,101206.00
2023-01-23T09:50:22.128Z,101199.44
2023-01-23T09:55:49.270Z,101211.56
2023-01-23T10:00:41.038Z,101221.06
2023-01-23T10:05:47.129Z,101230.56
2023-01-23T10:11:23.628Z,101234.53
2023-01-23T10:16:49.422Z,101235.75
2023-01-23T10:22:00.998Z,101249.59
2023-01-23T10:26:56.336Z,101255.22
2023-01-23T10:31:56.436Z,101250.91
2023-01-23T10:37:16.153Z,101239.47
2023-01-23T10:42:13.767Z,101255.41
2023-01-23T10:47:19.990Z,101248.72
2023-01-23T10:52:39.226Z,101244.59
2023-01-23T10:57:45.265Z,101236.59
2023-01-23T11:02:40.897Z,101237.69
2023-01-23T11:07:37.995Z,101245.97
2023-01-23T11:12:32.722Z,101246.53
2023-01-23T11:17:32.685Z,101223.47
2023-01-23T11:22:31.997Z,101231.38
2023-01-23T11:27:30.088Z,101233.22
2023-01-23T11:32:24.404Z,101227.59
2023-01-23T11:37:24.578Z,101216.66
2023-01-23T11:42:18.081Z,101206.31
2023-01-23T11:47:15.529Z,101207.88
2023-01-23T11:52:37.028Z,101201.53
2023-01-23T11:58:06.140Z,101202.31
2023-01-23T12:03:06.894Z,101203.34
2023-01-23T12:08:22.082Z,101194.47
2023-01-23T12:13:13.719Z,101195.50
2023-01-23T12:18:34.938Z,101191.69
2023-01-23T12:23:37.778Z,101182.69
2023-01-23T12:28:51.913Z,101186.94
2023-01-23T12:33:59.733Z,101197.97
2023-01-23T12:39:28.796Z,101202.06
2023-01-23T12:44:29.453Z,101200.19
2023-01-23T12:49:39.704Z,101195.25
2023-01-23T12:55:02.103Z,101211.41
2023-01-23T13:00:09.908Z,101204.88
2023-01-23T13:05:14.084Z,101204.75
2023-01-23T13:10:51.892Z,101205.16
2023-01-23T13:15:44.244Z,101210.13
2023-01-23T13:21:14.675Z,101209.72
2023-01-23T13:26:15.689Z,101219.34
2023-01-23T13:31:40.588Z,101217.78
2023-01-23T13:36:35.334Z,101236.00
2023-01-23T13:41:34.058Z,101234.56
2023-01-23T14:28:51.691Z,101209.94
2023-01-23T14:33:45.469Z,101203.72
2023-01-23T14:38:37.764Z,101202.63
2023-01-23T14:43:29.922Z,101205.06
2023-01-23T14:48:22.276Z,101210.75
2023-01-23T14:53:16.173Z,101217.72
2023-01-23T14:58:16.145Z,101216.63
2023-01-23T15:03:12.630Z,101220.75
2023-01-23T15:08:21.219Z,101228.28
2023-01-23T15:13:19.072Z,101225.47
2023-01-23T15:18:24.293Z,101229.34
2023-01-23T15:23:18.736Z,101218.00
2023-01-23T15:28:30.327Z,101229.78
2023-01-23T15:33:31.336Z,101227.25
2023-01-23T15:38:26.572Z,101227.69
2023-01-23T15:43:19.455Z,101226.81
2023-01-23T15:48:11.212Z,101228.66
2023-01-23T15:53:03.198Z,101222.59
2023-01-23T15:57:56.137Z,101221.31
2023-01-23T16:02:56.321Z,101212.13
2023-01-23T16:07:49.217Z,101227.28
2023-01-23T16:12:42.701Z,101233.66
2023-01-23T16:17:42.081Z,101240.59
2023-01-23T16:22:35.326Z,101242.28
2023-01-23T16:27:27.879Z,101241.59
2023-01-23T16:32:20.075Z,101246.78
2023-01-23T16:37:16.511Z,101252.03
2023-01-23T16:42:19.385Z,101252.72
2023-01-23T16:47:11.131Z,101266.69
2023-01-23T16:52:04.511Z,101252.13
2023-01-23T16:56:58.212Z,101240.53
2023-01-23T17:01:52.236Z,101248.25
2023-01-23T17:06:44.309Z,101252.34
2023-01-23T17:11:46.524Z,101257.41
2023-01-23T17:16:38.402Z,101266.88
2023-01-23T17:21:34.085Z,101263.59
2023-01-23T17:26:25.833Z,101279.81
2023-01-23T17:31:23.720Z,101276.84
2023-01-23T17:36:15.769Z,101284.31
2023-01-23T17:41:12.832Z,101283.00
2023-01-23T17:46:05.160Z,101280.16
2023-01-23T17:50:57.807Z,101288.19
2023-01-23T17:55:51.496Z,101283.50
2023-01-23T18:00:45.338Z,101285.44
2023-01-23T18:05:37.082Z,101305.91
2023-01-23T18:10:29.880Z,101280.47
2023-01-23T18:15:35.333Z,101295.72
2023-01-23T18:20:28.527Z,101301.47
2023-01-23T18:25:21.952Z,101301.16
2023-01-23T18:30:35.611Z,101297.88
2023-01-23T18:35:43.234Z,101316.63
2023-01-23T18:40:34.901Z,101327.22
2023-01-23T18:45:27.922Z,101334.56
2023-01-23T18:50:22.943Z,101330.16
2023-01-23T18:55:38.776Z,101339.94
2023-01-23T19:00:52.381Z,101335.53
2023-01-23T19:05:45.918Z,101335.09
2023-01-23T19:10:48.575Z,101335.47
2023-01-23T19:15:40.652Z,101342.94
2023-01-23T19:20:41.722Z,101338.78
2023-01-23T19:25:33.896Z,101345.38
2023-01-23T19:30:26.605Z,101349.19
2023-01-23T19:35:18.691Z,101342.25
2023-01-23T19:40:12.685Z,101344.47
2023-01-23T19:45:04.888Z,101351.63
2023-01-23T19:49:56.607Z,101351.88
2023-01-23T19:54:48.376Z,101356.41
2023-01-23T19:59:40.472Z,101367.97
2023-01-23T20:04:32.538Z,101367.97
2023-01-23T20:09:24.294Z,101372.59
2023-01-23T20:14:16.341Z,101373.69
2023-01-23T20:19:08.435Z,101383.44
2023-01-23T20:24:00.420Z,101375.28
2023-01-23T20:28:56.281Z,101377.97
2023-01-23T20:33:48.057Z,101373.69
2023-01-23T20:38:40.732Z,101377.13
2023-01-23T20:43:32.656Z,101382.75
2023-01-23T20:48:24.414Z,101374.44
2023-01-23T20:53:32.130Z,101382.34
2023-01-23T20:58:50.443Z,101377.13
2023-01-23T21:03:42.652Z,101382.34
2023-01-23T21:08:35.276Z,101384.28
2023-01-23T21:13:26.989Z,101376.88
2023-01-23T21:18:18.795Z,101382.03
2023-01-23T21:23:10.635Z,101378.25
2023-01-23T21:28:02.472Z,101383.03
2023-01-23T21:32:54.206Z,101377.31
2023-01-23T21:37:45.959Z,101383.28
2023-01-23T21:42:37.776Z,101394.50
2023-01-23T21:47:29.439Z,101398.97
2023-01-23T21:52:21.319Z,101403.72
2023-01-23T21:57:13.133Z,101407.38
2023-01-23T22:02:04.861Z,101398.63
2023-01-23T22:06:58.615Z,101400.59
2023-01-23T22:11:50.467Z,101398.03
2023-01-23T22:16:50.786Z,101390.34
2023-01-23T22:21:43.904Z,101399.47
2023-01-23T22:26:35.732Z,101398.75
2023-01-23T22:31:27.603Z,101389.25
2023-01-23T22:36:20.219Z,101399.00
2023-01-23T22:41:15.221Z,101406.66
2023-01-23T22:46:19.276Z,101413.09
2023-01-23T22:51:17.596Z,101412.63
2023-01-23T22:56:10.144Z,101420.66
2023-01-23T23:01:02.296Z,101421.50
2023-01-23T23:06:02.587Z,101415.06
2023-01-23T23:11:02.954Z,101412.00
2023-01-23T23:15:55.238Z,101417.84
2023-01-23T23:20:47.120Z,101412.38
2023-01-23T23:25:39.051Z,101419.78
2023-01-23T23:30:30.808Z,101421.50
2023-01-23T23:35:22.867Z,101416.88
2023-01-23T23:40:15.090Z,101414.19
2023-01-23T23:45:08.813Z,101412.09
2023-01-23T23:50:00.646Z,101412.09
2023-01-23T23:54:52.456Z,101408.00
2023-01-23T23:59:44.196Z,101409.31
